sensor_id;sensor_type;location;lat;lon;timestamp;temperature;humidity
3980;DHT22;2004;52.452;13.120;2022-07-15T00:01:22;15.30;85.40
3980;DHT22;2004;52.452;13.120;2022-07-15T00:09:13;15.20;89.90
3980;DHT22;2004;52.452;13.120;2022-07-15T00:17:04;15.10;93.20
3980;DHT22;2004;52.452;13.120;2022-07-15T00:24:55;15.00;96.30
3980;DHT22;2004;52.452;13.120;2022-07-15T00:32:45;14.90;98.80
3980;DHT22;2004;52.452;13.120;2022-07-15T00:40:42;14.80;99.90
3980;DHT22;2004;52.452;13.120;2022-07-15T00:48:33;14.80;99.90
3980;DHT22;2004;52.452;13.120;2022-07-15T00:56:25;14.70;99.90
3980;DHT22;2004;52.452;13.120;2022-07-15T01:04:18;14.60;99.90
3980;DHT22;2004;52.452;13.120;2022-07-15T01:12:08;14.50;99.90
3980;DHT22;2004;52.452;13.120;2022-07-15T01:19:59;14.40;99.90
3980;DHT22;2004;52.452;13.120;2022-07-15T01:27:49;14.30;99.90
3980;DHT22;2004;52.452;13.120;2022-07-15T01:35:40;14.20;99.90
3980;DHT22;2004;52.452;13.120;2022-07-15T01:43:32;14.10;99.90
3980;DHT22;2004;52.452;13.120;2022-07-15T01:51:22;14.00;99.90
3980;DHT22;2004;52.452;13.120;2022-07-15T01:59:13;14.00;99.90
3980;DHT22;2004;52.452;13.120;2022-07-15T02:07:03;13.90;99.90
3980;DHT22;2004;52.452;13.120;2022-07-15T02:14:54;13.80;99.90
3980;DHT22;2004;52.452;13.120;2022-07-15T02:22:45;13.70;99.90
3980;DHT22;2004;52.452;13.120;2022-07-15T02:30:38;13.60;99.90
3980;DHT22;2004;52.452;13.120;2022-07-15T02:38:29;13.60;99.90
3980;DHT22;2004;52.452;13.120;2022-07-15T02:46:20;13.60;99.90
3980;DHT22;2004;52.452;13.120;2022-07-15T02:54:10;13.50;99.90
3980;DHT22;2004;52.452;13.120;2022-07-15T03:02:02;13.40;99.90
3980;DHT22;2004;52.452;13.120;2022-07-15T03:09:52;13.30;99.90
3980;DHT22;2004;52.452;13.120;2022-07-15T03:17:43;13.30;99.90
3980;DHT22;2004;52.452;13.120;2022-07-15T03:25:33;13.30;99.90
3980;DHT22;2004;52.452;13.120;2022-07-15T03:33:24;13.30;99.90
3980;DHT22;2004;52.452;13.120;2022-07-15T03:41:14;13.30;99.90
3980;DHT22;2004;52.452;13.120;2022-07-15T03:49:05;13.30;99.90
3980;DHT22;2004;52.452;13.120;2022-07-15T03:56:56;13.30;99.90
3980;DHT22;2004;52.452;13.120;2022-07-15T04:04:46;13.30;99.90
3980;DHT22;2004;52.452;13.120;2022-07-15T04:12:37;13.30;99.90
3980;DHT22;2004;52.452;13.120;2022-07-15T04:20:27;13.30;99.90
3980;DHT22;2004;52.452;13.120;2022-07-15T04:28:19;13.40;99.90
3980;DHT22;2004;52.452;13.120;2022-07-15T04:36:10;13.50;99.90
3980;DHT22;2004;52.452;13.120;2022-07-15T04:44:00;13.60;99.90
3980;DHT22;2004;52.452;13.120;2022-07-15T04:51:51;13.60;99.90
3980;DHT22;2004;52.452;13.120;2022-07-15T04:59:41;13.70;99.90
3980;DHT22;2004;52.452;13.120;2022-07-15T05:07:32;13.70;99.90
3980;DHT22;2004;52.452;13.120;2022-07-15T05:15:22;13.90;99.90
3980;DHT22;2004;52.452;13.120;2022-07-15T05:23:15;14.00;99.90
3980;DHT22;2004;52.452;13.120;2022-07-15T05:31:07;14.10;99.90
3980;DHT22;2004;52.452;13.120;2022-07-15T05:38:57;14.20;99.90
3980;DHT22;2004;52.452;13.120;2022-07-15T05:46:48;14.30;99.90
3980;DHT22;2004;52.452;13.120;2022-07-15T05:54:38;14.40;99.90
3980;DHT22;2004;52.452;13.120;2022-07-15T06:02:29;14.50;99.90
3980;DHT22;2004;52.452;13.120;2022-07-15T06:10:21;14.60;99.90
3980;DHT22;2004;52.452;13.120;2022-07-15T06:18:11;14.80;99.90
3980;DHT22;2004;52.452;13.120;2022-07-15T06:26:02;14.90;99.90
3980;DHT22;2004;52.452;13.120;2022-07-15T06:33:53;15.00;99.90
3980;DHT22;2004;52.452;13.120;2022-07-15T06:41:43;15.10;99.90
3980;DHT22;2004;52.452;13.120;2022-07-15T06:49:34;15.20;99.90
3980;DHT22;2004;52.452;13.120;2022-07-15T06:57:24;15.30;99.90
3980;DHT22;2004;52.452;13.120;2022-07-15T07:05:15;15.30;99.90
3980;DHT22;2004;52.452;13.120;2022-07-15T07:13:06;15.50;99.90
3980;DHT22;2004;52.452;13.120;2022-07-15T07:20:56;15.70;99.90
3980;DHT22;2004;52.452;13.120;2022-07-15T07:28:47;15.80;99.90
3980;DHT22;2004;52.452;13.120;2022-07-15T07:36:39;15.80;99.90
3980;DHT22;2004;52.452;13.120;2022-07-15T07:44:30;15.90;99.90
3980;DHT22;2004;52.452;13.120;2022-07-15T07:52:20;16.00;94.90
3980;DHT22;2004;52.452;13.120;2022-07-15T08:00:11;16.20;93.20
3980;DHT22;2004;52.452;13.120;2022-07-15T08:08:14;16.30;91.80
3980;DHT22;2004;52.452;13.120;2022-07-15T08:16:06;16.30;93.00
3980;DHT22;2004;52.452;13.120;2022-07-15T08:23:56;16.30;93.00
3980;DHT22;2004;52.452;13.120;2022-07-15T08:31:47;16.40;91.60
3980;DHT22;2004;52.452;13.120;2022-07-15T08:39:37;16.50;90.40
3980;DHT22;2004;52.452;13.120;2022-07-15T08:47:31;16.50;85.80
3980;DHT22;2004;52.452;13.120;2022-07-15T08:55:22;16.70;86.60
3980;DHT22;2004;52.452;13.120;2022-07-15T09:03:12;16.90;83.30
3980;DHT22;2004;52.452;13.120;2022-07-15T09:11:03;17.00;84.90
3980;DHT22;2004;52.452;13.120;2022-07-15T09:18:55;16.80;82.10
3980;DHT22;2004;52.452;13.120;2022-07-15T09:26:46;16.90;80.90
3980;DHT22;2004;52.452;13.120;2022-07-15T09:35:00;17.10;80.90
3980;DHT22;2004;52.452;13.120;2022-07-15T09:43:02;17.20;79.20
3980;DHT22;2004;52.452;13.120;2022-07-15T09:50:58;17.30;80.80
3980;DHT22;2004;52.452;13.120;2022-07-15T09:58:50;17.30;79.30
3980;DHT22;2004;52.452;13.120;2022-07-15T10:06:42;17.40;80.40
3980;DHT22;2004;52.452;13.120;2022-07-15T10:14:46;17.50;80.20
3980;DHT22;2004;52.452;13.120;2022-07-15T10:23:04;17.40;79.10
3980;DHT22;2004;52.452;13.120;2022-07-15T10:31:25;17.50;79.80
3980;DHT22;2004;52.452;13.120;2022-07-15T10:39:18;17.50;78.30
3980;DHT22;2004;52.452;13.120;2022-07-15T10:55:05;17.80;73.40
3980;DHT22;2004;52.452;13.120;2022-07-15T11:10:53;18.30;69.50
3980;DHT22;2004;52.452;13.120;2022-07-15T11:18:55;18.30;65.70
3980;DHT22;2004;52.452;13.120;2022-07-15T11:26:47;18.50;66.80
3980;DHT22;2004;52.452;13.120;2022-07-15T11:34:41;18.70;66.30
3980;DHT22;2004;52.452;13.120;2022-07-15T11:42:32;18.70;64.90
3980;DHT22;2004;52.452;13.120;2022-07-15T11:50:50;18.70;66.20
3980;DHT22;2004;52.452;13.120;2022-07-15T11:58:49;18.80;66.10
3980;DHT22;2004;52.452;13.120;2022-07-15T12:06:40;19.10;66.50
3980;DHT22;2004;52.452;13.120;2022-07-15T12:14:30;19.60;66.20
3980;DHT22;2004;52.452;13.120;2022-07-15T12:22:21;19.60;63.40
3980;DHT22;2004;52.452;13.120;2022-07-15T12:30:12;19.50;64.40
3980;DHT22;2004;52.452;13.120;2022-07-15T12:38:02;19.40;65.20
3980;DHT22;2004;52.452;13.120;2022-07-15T12:45:53;19.40;64.40
3980;DHT22;2004;52.452;13.120;2022-07-15T12:53:44;19.50;62.40
3980;DHT22;2004;52.452;13.120;2022-07-15T13:01:34;19.50;62.00
3980;DHT22;2004;52.452;13.120;2022-07-15T13:09:25;19.30;61.90
3980;DHT22;2004;52.452;13.120;2022-07-15T13:17:15;19.20;63.30
3980;DHT22;2004;52.452;13.120;2022-07-15T13:25:06;19.20;62.10
3980;DHT22;2004;52.452;13.120;2022-07-15T13:32:58;19.40;61.80
3980;DHT22;2004;52.452;13.120;2022-07-15T13:40:48;19.40;63.40
3980;DHT22;2004;52.452;13.120;2022-07-15T13:48:39;19.40;63.50
3980;DHT22;2004;52.452;13.120;2022-07-15T13:56:29;19.50;65.00
3980;DHT22;2004;52.452;13.120;2022-07-15T14:04:20;19.40;64.50
3980;DHT22;2004;52.452;13.120;2022-07-15T14:12:11;19.70;64.00
3980;DHT22;2004;52.452;13.120;2022-07-15T14:20:01;19.90;61.30
3980;DHT22;2004;52.452;13.120;2022-07-15T14:27:52;19.90;62.80
3980;DHT22;2004;52.452;13.120;2022-07-15T14:35:43;19.80;61.50
3980;DHT22;2004;52.452;13.120;2022-07-15T14:43:34;19.90;59.40
3980;DHT22;2004;52.452;13.120;2022-07-15T14:51:25;20.00;60.00
3980;DHT22;2004;52.452;13.120;2022-07-15T14:59:15;19.90;60.50
3980;DHT22;2004;52.452;13.120;2022-07-15T15:07:07;19.90;60.00
3980;DHT22;2004;52.452;13.120;2022-07-15T15:14:57;20.00;61.30
3980;DHT22;2004;52.452;13.120;2022-07-15T15:22:48;20.10;60.00
3980;DHT22;2004;52.452;13.120;2022-07-15T15:30:38;20.10;59.50
3980;DHT22;2004;52.452;13.120;2022-07-15T15:38:29;20.10;59.20
3980;DHT22;2004;52.452;13.120;2022-07-15T15:46:20;20.10;60.90
3980;DHT22;2004;52.452;13.120;2022-07-15T15:54:10;20.10;60.50
3980;DHT22;2004;52.452;13.120;2022-07-15T16:02:01;20.10;59.90
3980;DHT22;2004;52.452;13.120;2022-07-15T16:09:53;20.00;59.90
3980;DHT22;2004;52.452;13.120;2022-07-15T16:17:43;20.00;59.70
3980;DHT22;2004;52.452;13.120;2022-07-15T16:25:36;19.90;60.00
3980;DHT22;2004;52.452;13.120;2022-07-15T16:33:26;19.90;59.00
3980;DHT22;2004;52.452;13.120;2022-07-15T16:41:17;20.10;60.10
3980;DHT22;2004;52.452;13.120;2022-07-15T16:49:08;20.00;60.50
3980;DHT22;2004;52.452;13.120;2022-07-15T16:56:58;20.00;59.90
3980;DHT22;2004;52.452;13.120;2022-07-15T17:04:49;19.90;59.70
3980;DHT22;2004;52.452;13.120;2022-07-15T17:12:40;19.90;60.40
3980;DHT22;2004;52.452;13.120;2022-07-15T17:20:30;19.80;60.40
3980;DHT22;2004;52.452;13.120;2022-07-15T17:28:21;19.80;60.80
3980;DHT22;2004;52.452;13.120;2022-07-15T17:36:12;19.60;61.20
3980;DHT22;2004;52.452;13.120;2022-07-15T17:44:03;19.60;60.40
3980;DHT22;2004;52.452;13.120;2022-07-15T17:51:54;19.50;61.00
3980;DHT22;2004;52.452;13.120;2022-07-15T17:59:46;19.60;61.20
3980;DHT22;2004;52.452;13.120;2022-07-15T18:07:38;19.50;61.60
3980;DHT22;2004;52.452;13.120;2022-07-15T18:15:29;19.50;62.10
3980;DHT22;2004;52.452;13.120;2022-07-15T18:23:19;19.40;62.80
3980;DHT22;2004;52.452;13.120;2022-07-15T18:31:10;19.40;62.20
3980;DHT22;2004;52.452;13.120;2022-07-15T18:39:01;19.20;62.80
3980;DHT22;2004;52.452;13.120;2022-07-15T18:46:51;19.20;63.20
3980;DHT22;2004;52.452;13.120;2022-07-15T18:54:42;19.10;64.00
3980;DHT22;2004;52.452;13.120;2022-07-15T19:02:32;19.00;64.10
3980;DHT22;2004;52.452;13.120;2022-07-15T19:10:23;18.90;65.30
3980;DHT22;2004;52.452;13.120;2022-07-15T19:18:14;18.80;66.20
3980;DHT22;2004;52.452;13.120;2022-07-15T19:26:06;18.60;66.90
3980;DHT22;2004;52.452;13.120;2022-07-15T19:33:57;18.50;66.60
3980;DHT22;2004;52.452;13.120;2022-07-15T19:41:47;18.40;67.10
3980;DHT22;2004;52.452;13.120;2022-07-15T19:49:38;18.30;67.70
3980;DHT22;2004;52.452;13.120;2022-07-15T19:57:29;18.10;68.80
3980;DHT22;2004;52.452;13.120;2022-07-15T20:05:21;18.00;70.30
3980;DHT22;2004;52.452;13.120;2022-07-15T20:13:12;18.00;70.50
3980;DHT22;2004;52.452;13.120;2022-07-15T20:21:03;17.90;71.80
3980;DHT22;2004;52.452;13.120;2022-07-15T20:28:53;17.80;72.10
3980;DHT22;2004;52.452;13.120;2022-07-15T20:36:44;17.70;72.70
3980;DHT22;2004;52.452;13.120;2022-07-15T20:44:35;17.60;74.10
3980;DHT22;2004;52.452;13.120;2022-07-15T20:52:26;17.50;75.10
3980;DHT22;2004;52.452;13.120;2022-07-15T21:00:16;17.40;75.80
3980;DHT22;2004;52.452;13.120;2022-07-15T21:08:08;17.30;76.30
3980;DHT22;2004;52.452;13.120;2022-07-15T21:15:58;17.30;77.60
3980;DHT22;2004;52.452;13.120;2022-07-15T21:23:49;17.20;79.30
3980;DHT22;2004;52.452;13.120;2022-07-15T21:31:40;17.20;78.90
3980;DHT22;2004;52.452;13.120;2022-07-15T21:39:30;17.10;79.80
3980;DHT22;2004;52.452;13.120;2022-07-15T21:47:21;17.10;81.90
3980;DHT22;2004;52.452;13.120;2022-07-15T21:55:11;17.00;82.30
3980;DHT22;2004;52.452;13.120;2022-07-15T22:03:02;17.00;82.70
3980;DHT22;2004;52.452;13.120;2022-07-15T22:10:53;16.90;83.50
3980;DHT22;2004;52.452;13.120;2022-07-15T22:18:43;16.90;84.30
3980;DHT22;2004;52.452;13.120;2022-07-15T22:26:34;16.90;85.10
3980;DHT22;2004;52.452;13.120;2022-07-15T22:34:27;16.80;86.00
3980;DHT22;2004;52.452;13.120;2022-07-15T22:42:18;16.80;87.50
3980;DHT22;2004;52.452;13.120;2022-07-15T22:50:09;16.80;87.90
3980;DHT22;2004;52.452;13.120;2022-07-15T22:58:00;16.70;88.80
3980;DHT22;2004;52.452;13.120;2022-07-15T23:05:51;16.60;90.80
3980;DHT22;2004;52.452;13.120;2022-07-15T23:13:42;16.60;91.30
3980;DHT22;2004;52.452;13.120;2022-07-15T23:21:33;16.60;93.20
3980;DHT22;2004;52.452;13.120;2022-07-15T23:29:23;16.50;96.50
3980;DHT22;2004;52.452;13.120;2022-07-15T23:37:14;16.40;99.20
3980;DHT22;2004;52.452;13.120;2022-07-15T23:45:05;16.40;99.60
3980;DHT22;2004;52.452;13.120;2022-07-15T23:52:56;16.30;99.90
